createdAt,value
2023-09-02T00:00:38.326Z,97927.28
2023-09-02T00:03:07.339Z,97934.94
2023-09-02T00:05:35.034Z,97928.59
2023-09-02T00:08:03.472Z,97932.09
2023-09-02T00:10:31.102Z,97928.72
2023-09-02T00:12:59.105Z,97934.66
2023-09-02T00:15:26.643Z,97938.59
2023-09-02T00:17:54.193Z,97939.50
2023-09-02T00:20:23.870Z,97940.03
2023-09-02T00:22:52.359Z,97942.63
2023-09-02T00:25:20.406Z,97943.88
2023-09-02T00:27:47.919Z,97947.66
2023-09-02T00:30:16.105Z,97953.31
2023-09-02T00:32:44.434Z,97950.13
2023-09-02T00:35:12.334Z,97955.84
2023-09-02T00:37:41.375Z,97965.78
2023-09-02T00:40:14.832Z,97963.84
2023-09-02T00:42:43.947Z,97964.63
2023-09-02T00:45:12.298Z,97969.94
2023-09-02T00:47:40.015Z,97961.38
2023-09-02T00:50:09.108Z,97959.28
2023-09-02T00:52:36.897Z,97960.78
2023-09-02T00:55:06.536Z,97965.59
2023-09-02T00:57:33.689Z,97970.78
2023-09-02T01:00:02.693Z,97976.63
2023-09-02T01:02:32.351Z,97979.22
2023-09-02T01:05:00.387Z,97973.94
2023-09-02T01:07:28.006Z,97974.66
2023-09-02T01:09:57.596Z,97974.03
2023-09-02T01:12:28.759Z,97973.53
2023-09-02T01:14:58.393Z,97974.88
2023-09-02T01:17:27.581Z,97994.66
2023-09-02T01:19:56.774Z,97995.13
2023-09-02T01:22:42.510Z,97989.75
2023-09-02T01:25:30.274Z,97995.50
2023-09-02T01:28:04.448Z,97998.25
2023-09-02T01:30:34.564Z,97995.69
2023-09-02T01:33:05.804Z,98004.72
2023-09-02T01:35:35.818Z,98003.91
2023-09-02T01:38:07.059Z,98008.34
2023-09-02T01:40:35.651Z,98005.94
2023-09-02T01:43:05.609Z,98009.19
2023-09-02T01:45:35.600Z,98002.03
2023-09-02T01:48:04.692Z,98008.97
2023-09-02T01:50:34.944Z,98011.88
2023-09-02T01:53:03.541Z,98010.94
2023-09-02T01:55:33.488Z,98018.25
2023-09-02T01:58:02.165Z,98022.91
2023-09-02T02:00:31.578Z,98027.69
2023-09-02T02:02:59.290Z,98024.63
2023-09-02T02:05:38.298Z,98035.72
2023-09-02T02:08:12.317Z,98037.75
2023-09-02T02:10:43.056Z,98035.25
2023-09-02T02:13:11.089Z,98034.97
2023-09-02T02:15:40.240Z,98041.28
2023-09-02T02:18:07.934Z,98031.72
2023-09-02T02:20:45.455Z,98048.13
2023-09-02T02:23:13.428Z,98044.94
2023-09-02T02:25:41.745Z,98047.47
2023-09-02T02:28:09.351Z,98048.06
2023-09-02T02:30:37.516Z,98049.97
2023-09-02T02:33:06.903Z,98048.66
2023-09-02T02:35:34.556Z,98046.06
2023-09-02T02:38:02.210Z,98046.25
2023-09-02T02:40:29.895Z,98045.53
2023-09-02T02:42:57.431Z,98036.50
2023-09-02T02:45:25.172Z,98047.09
2023-09-02T02:47:52.868Z,98049.06
2023-09-02T02:50:23.285Z,98057.84
2023-09-02T02:52:51.317Z,98046.00
2023-09-02T02:55:19.406Z,98054.81
2023-09-02T02:57:47.093Z,98053.22
2023-09-02T03:00:15.686Z,98054.03
2023-09-02T03:02:43.544Z,98046.34
2023-09-02T03:05:11.287Z,98052.78
2023-09-02T03:07:41.821Z,98049.91
2023-09-02T03:10:10.199Z,98049.03
2023-09-02T03:12:38.301Z,98043.28
2023-09-02T03:15:09.425Z,98042.09
2023-09-02T03:17:37.937Z,98055.25
2023-09-02T03:20:08.346Z,98058.00
2023-09-02T03:22:43.240Z,98060.97
2023-09-02T03:25:11.363Z,98069.13
2023-09-02T03:27:39.287Z,98069.56
2023-09-02T03:30:09.066Z,98069.84
2023-09-02T03:32:37.264Z,98060.03
2023-09-02T03:35:05.569Z,98067.72
2023-09-02T03:37:33.293Z,98072.91
2023-09-02T03:40:03.561Z,98067.56
2023-09-02T03:42:31.206Z,98068.97
2023-09-02T03:44:59.244Z,98071.28
2023-09-02T03:47:31.376Z,98073.91
2023-09-02T03:50:01.691Z,98073.34
2023-09-02T03:52:30.627Z,98071.50
2023-09-02T03:54:58.805Z,98070.50
2023-09-02T03:57:28.226Z,98075.56
2023-09-02T03:59:55.850Z,98073.09
2023-09-02T04:02:23.535Z,98080.63
2023-09-02T04:04:51.530Z,98075.38
2023-09-02T04:07:19.252Z,98080.16
2023-09-02T04:09:46.816Z,98076.28
2023-09-02T04:12:14.661Z,98079.06
2023-09-02T04:14:44.621Z,98080.16
2023-09-02T04:17:13.148Z,98079.34
2023-09-02T04:19:41.291Z,98075.25
2023-09-02T04:22:09.011Z,98077.59
2023-09-02T04:24:36.875Z,98090.44
2023-09-02T04:27:05.807Z,98087.56
2023-09-02T04:29:33.906Z,98084.41
2023-09-02T04:32:03.727Z,98089.47
2023-09-02T04:34:31.295Z,98090.31
2023-09-02T04:36:59.513Z,98094.59
2023-09-02T04:39:27.208Z,98094.34
2023-09-02T04:41:54.819Z,98093.38
2023-09-02T04:44:22.697Z,98101.13
2023-09-02T04:46:50.331Z,98105.47
2023-09-02T04:49:20.044Z,98098.22
2023-09-02T04:51:48.937Z,98094.34
2023-09-02T04:54:18.760Z,98105.84
2023-09-02T04:56:47.303Z,98097.88
2023-09-02T04:59:15.848Z,98105.25
2023-09-02T05:01:43.959Z,98102.22
2023-09-02T05:04:12.375Z,98106.50
2023-09-02T05:06:42.577Z,98104.38
2023-09-02T05:09:10.307Z,98108.16
2023-09-02T05:11:38.053Z,98108.97
2023-09-02T05:14:05.883Z,98098.47
2023-09-02T05:16:35.029Z,98109.09
2023-09-02T05:19:03.600Z,98104.25
2023-09-02T05:21:31.838Z,98113.84
2023-09-02T05:24:01.385Z,98102.78
2023-09-02T05:26:30.124Z,98103.09
2023-09-02T05:28:58.673Z,98103.88
2023-09-02T05:31:26.619Z,98101.63
2023-09-02T05:33:54.220Z,98091.38
2023-09-02T05:36:22.110Z,98101.88
2023-09-02T05:38:49.735Z,98092.16
2023-09-02T05:41:18.796Z,98094.03
2023-09-02T05:43:46.536Z,98116.16
2023-09-02T05:46:14.152Z,98102.84
2023-09-02T05:48:42.931Z,98102.25
2023-09-02T05:51:11.022Z,98090.53
2023-09-02T05:53:40.697Z,98096.94
2023-09-02T05:56:08.721Z,98101.63
2023-09-02T05:58:37.845Z,98102.31
2023-09-02T06:01:07.053Z,98101.59
2023-09-02T06:03:34.769Z,98098.69
2023-09-02T06:06:09.844Z,98103.47
2023-09-02T06:08:37.991Z,98092.50
2023-09-02T06:11:06.708Z,98105.69
2023-09-02T06:13:36.366Z,98095.22
2023-09-02T06:16:07.750Z,98094.25
2023-09-02T06:18:37.556Z,98098.81
2023-09-02T06:21:11.938Z,98105.78
2023-09-02T06:23:42.706Z,98094.25
2023-09-02T06:26:12.027Z,98099.47
2023-09-02T06:28:41.424Z,98097.16
2023-09-02T06:31:12.419Z,98100.69
2023-09-02T06:33:41.031Z,98094.19
2023-09-02T06:36:12.961Z,98104.00
2023-09-02T06:38:41.653Z,98107.44
2023-09-02T06:41:13.889Z,98096.16
2023-09-02T06:43:43.179Z,98097.16
2023-09-02T06:46:14.806Z,98086.03
2023-09-02T06:48:43.821Z,98090.84
2023-09-02T06:51:12.527Z,98094.25
2023-09-02T06:53:41.254Z,98099.88
2023-09-02T06:56:09.508Z,98096.91
2023-09-02T06:58:39.567Z,98104.31
2023-09-02T07:01:07.984Z,98099.41
2023-09-02T07:03:37.066Z,98109.72
2023-09-02T07:06:08.316Z,98106.69
2023-09-02T07:08:36.231Z,98102.03
2023-09-02T07:11:03.849Z,98110.94
2023-09-02T07:13:31.500Z,98119.44
2023-09-02T07:16:00.734Z,98121.50
2023-09-02T07:18:28.618Z,98121.81
2023-09-02T07:21:00.336Z,98110.38
2023-09-02T07:23:28.464Z,98110.69
2023-09-02T07:25:57.093Z,98108.53
2023-09-02T07:28:24.667Z,98093.13
2023-09-02T07:30:52.299Z,98104.81
2023-09-02T07:33:21.327Z,98116.97
2023-09-02T07:35:49.322Z,98119.44
2023-09-02T07:38:18.372Z,98116.75
2023-09-02T07:40:46.114Z,98126.78
2023-09-02T07:43:13.621Z,98128.00
2023-09-02T07:45:41.444Z,98132.22
2023-09-02T07:48:09.173Z,98125.13
2023-09-02T07:50:36.765Z,98121.56
2023-09-02T07:53:04.767Z,98122.53
2023-09-02T07:55:34.148Z,98128.06
2023-09-02T07:58:01.797Z,98124.50
2023-09-02T08:00:29.815Z,98134.84
2023-09-02T08:02:58.771Z,98128.47
2023-09-02T08:05:27.139Z,98128.53
2023-09-02T08:07:55.580Z,98137.16
2023-09-02T08:10:24.397Z,98125.66
2023-09-02T08:12:53.881Z,98136.97
2023-09-02T08:15:22.473Z,98130.97
2023-09-02T08:17:51.606Z,98136.22
2023-09-02T08:20:19.543Z,98125.94
2023-09-02T08:22:47.158Z,98150.88
2023-09-02T08:25:14.672Z,98149.00
2023-09-02T08:27:45.206Z,98150.63
2023-09-02T08:30:15.003Z,98145.66
2023-09-02T08:32:42.848Z,98153.72
2023-09-02T08:35:11.201Z,98157.34
2023-09-02T08:37:38.729Z,98153.72
2023-09-02T08:40:08.254Z,98154.91
2023-09-02T08:42:36.284Z,98148.19
2023-09-02T08:45:08.441Z,98158.72
2023-09-02T08:47:40.213Z,98162.72
2023-09-02T08:50:08.942Z,98156.31
2023-09-02T08:52:37.063Z,98160.72
2023-09-02T08:55:05.367Z,98158.88
2023-09-02T08:57:35.215Z,98171.81
2023-09-02T09:00:03.977Z,98170.25
2023-09-02T09:02:34.801Z,98164.88
2023-09-02T09:05:07.613Z,98157.94
2023-09-02T09:07:36.878Z,98160.78
2023-09-02T09:10:10.225Z,98162.44
2023-09-02T09:12:39.560Z,98165.38
2023-09-02T09:15:10.886Z,98163.25
2023-09-02T09:17:39.892Z,98157.13
2023-09-02T09:20:11.920Z,98155.13
2023-09-02T09:22:41.708Z,98152.44
2023-09-02T09:25:13.259Z,98153.16
2023-09-02T09:27:42.329Z,98156.78
2023-09-02T09:30:27.610Z,98147.78
2023-09-02T09:32:58.887Z,98154.34
2023-09-02T09:35:28.365Z,98156.31
2023-09-02T09:37:56.713Z,98151.75
2023-09-02T09:40:31.328Z,98145.59
2023-09-02T09:42:59.877Z,98141.84
2023-09-02T09:45:27.638Z,98142.25
2023-09-02T09:47:58.109Z,98142.81
2023-09-02T09:50:29.015Z,98140.75
2023-09-02T09:53:01.529Z,98157.59
2023-09-02T09:55:30.405Z,98148.81
2023-09-02T09:57:59.897Z,98160.00
2023-09-02T10:00:29.825Z,98166.13
2023-09-02T10:02:59.356Z,98166.88
2023-09-02T10:05:29.417Z,98165.56
2023-09-02T10:08:00.030Z,98166.03
2023-09-02T10:10:33.570Z,98170.84
2023-09-02T10:13:02.518Z,98161.13
2023-09-02T10:15:30.969Z,98160.41
2023-09-02T10:18:01.516Z,98158.91
2023-09-02T10:20:32.382Z,98148.25
2023-09-02T10:23:05.917Z,98141.69
2023-09-02T10:25:44.314Z,98151.66
2023-09-02T10:28:15.454Z,98151.41
2023-09-02T10:30:47.621Z,98157.50
2023-09-02T10:33:21.925Z,98151.66
2023-09-02T10:35:58.184Z,98146.75
2023-09-02T10:38:28.143Z,98153.16
2023-09-02T10:41:02.920Z,98148.97
2023-09-02T10:43:32.083Z,98149.53
2023-09-02T10:46:00.677Z,98160.19
2023-09-02T10:48:28.242Z,98159.91
2023-09-02T10:50:57.963Z,98155.09
2023-09-02T10:53:39.727Z,98157.88
2023-09-02T10:56:07.526Z,98152.97
2023-09-02T10:58:47.855Z,98154.09
2023-09-02T11:01:15.623Z,98156.69
2023-09-02T11:03:43.707Z,98153.16
2023-09-02T11:06:12.831Z,98148.72
2023-09-02T11:08:47.154Z,98159.25
2023-09-02T11:11:14.753Z,98164.00
2023-09-02T11:14:19.555Z,98160.50
2023-09-02T11:17:25.833Z,98167.69
2023-09-02T11:20:01.407Z,98159.25
2023-09-02T11:22:50.797Z,98158.69
2023-09-02T11:25:32.782Z,98164.84
2023-09-02T11:28:01.559Z,98154.25
2023-09-02T11:30:29.772Z,98150.88
2023-09-02T11:32:58.092Z,98156.50
2023-09-02T11:35:27.398Z,98150.00
2023-09-02T11:37:57.142Z,98151.13
2023-09-02T11:40:25.103Z,98151.22
2023-09-02T11:42:53.791Z,98160.19
2023-09-02T11:45:21.772Z,98159.63
2023-09-02T11:47:50.304Z,98151.03
2023-09-02T11:50:19.335Z,98146.41
2023-09-02T11:52:47.693Z,98155.47
2023-09-02T11:55:17.716Z,98169.44
2023-09-02T11:57:46.782Z,98160.94
2023-09-02T12:00:18.609Z,98166.78
2023-09-02T12:02:47.514Z,98166.66
2023-09-02T12:05:15.872Z,98166.84
2023-09-02T12:07:44.484Z,98170.53
2023-09-02T12:10:13.484Z,98177.50
2023-09-02T12:12:44.382Z,98171.66
2023-09-02T12:15:13.176Z,98160.59
2023-09-02T12:17:41.299Z,98160.19
2023-09-02T12:20:10.913Z,98169.00
2023-09-02T12:22:39.061Z,98157.84
2023-09-02T12:25:18.167Z,98165.09
2023-09-02T12:27:48.363Z,98161.03
2023-09-02T12:30:26.464Z,98161.38
2023-09-02T12:32:55.084Z,98157.91
2023-09-02T12:35:22.913Z,98167.31
2023-09-02T12:38:01.560Z,98157.13
2023-09-02T12:40:29.459Z,98164.84
2023-09-02T12:42:58.970Z,98168.25
2023-09-02T12:45:30.338Z,98168.34
2023-09-02T12:47:59.965Z,98171.41
2023-09-02T12:50:28.872Z,98178.59
2023-09-02T12:52:57.753Z,98177.88
2023-09-02T12:55:25.938Z,98180.28
2023-09-02T12:57:53.958Z,98192.41
2023-09-02T13:00:22.944Z,98188.34
2023-09-02T13:02:54.135Z,98190.91
2023-09-02T13:05:21.965Z,98189.53
2023-09-02T13:07:49.527Z,98186.38
2023-09-02T13:10:17.348Z,98197.13
2023-09-02T13:12:44.820Z,98198.06
2023-09-02T13:15:12.397Z,98197.88
2023-09-02T13:17:41.801Z,98207.56
2023-09-02T13:20:12.371Z,98217.97
2023-09-02T13:22:41.142Z,98203.06
2023-09-02T13:25:09.053Z,98203.44
2023-09-02T13:27:37.548Z,98205.91
2023-09-02T13:30:06.338Z,98209.91
2023-09-02T13:32:36.944Z,98209.72
2023-09-02T13:35:16.247Z,98205.28
2023-09-02T13:37:44.834Z,98208.81
2023-09-02T13:40:36.232Z,98217.88
2023-09-02T13:43:09.055Z,98214.63
2023-09-02T13:45:38.487Z,98213.31
2023-09-02T13:48:07.255Z,98221.13
2023-09-02T13:50:37.142Z,98221.44
2023-09-02T13:53:05.508Z,98222.88
2023-09-02T13:55:38.193Z,98216.38
2023-09-02T13:58:06.699Z,98223.50
2023-09-02T14:00:36.795Z,98219.91
2023-09-02T14:03:08.572Z,98218.53
2023-09-02T14:05:38.467Z,98219.25
2023-09-02T14:08:07.103Z,98224.78
2023-09-02T14:10:35.013Z,98222.66
2023-09-02T14:13:03.453Z,98224.44
2023-09-02T14:15:31.250Z,98221.13
2023-09-02T14:17:58.958Z,98222.41
2023-09-02T14:20:26.599Z,98226.66
2023-09-02T14:22:55.676Z,98229.34
2023-09-02T14:25:23.227Z,98235.66
2023-09-02T14:27:50.991Z,98231.41
2023-09-02T14:30:19.194Z,98233.16
2023-09-02T14:32:48.343Z,98233.88
2023-09-02T14:35:16.650Z,98230.63
2023-09-02T14:37:44.279Z,98239.38
2023-09-02T14:40:13.435Z,98251.00
2023-09-02T14:42:41.221Z,98236.56
2023-09-02T14:45:09.753Z,98247.50
2023-09-02T14:47:38.525Z,98257.34
2023-09-02T14:50:07.953Z,98258.22
2023-09-02T14:52:35.998Z,98264.88
2023-09-02T14:55:06.038Z,98259.13
2023-09-02T14:57:37.413Z,98260.69
2023-09-02T15:00:06.849Z,98255.59
2023-09-02T15:02:39.939Z,98261.13
2023-09-02T15:05:10.248Z,98264.50
2023-09-02T15:07:38.902Z,98262.97
2023-09-02T15:10:08.373Z,98260.56
2023-09-02T15:12:38.437Z,98257.25
2023-09-02T15:15:09.047Z,98269.34
2023-09-02T15:17:37.610Z,98258.44
2023-09-02T15:20:11.187Z,98271.63
2023-09-02T15:22:39.450Z,98271.69
2023-09-02T15:25:11.089Z,98265.56
2023-09-02T15:27:41.844Z,98269.00
2023-09-02T15:30:12.474Z,98268.69
2023-09-02T15:32:40.933Z,98267.38
2023-09-02T15:35:09.677Z,98276.31
2023-09-02T15:37:38.403Z,98275.84
2023-09-02T15:40:07.205Z,98278.88
2023-09-02T15:42:35.743Z,98282.03
2023-09-02T15:45:05.233Z,98283.22
2023-09-02T15:47:32.799Z,98285.16
2023-09-02T15:50:01.552Z,98294.50
2023-09-02T15:52:29.539Z,98299.19
2023-09-02T15:54:57.210Z,98294.31
2023-09-02T15:57:26.309Z,98296.94
2023-09-02T15:59:54.401Z,98293.25
2023-09-02T16:02:24.209Z,98295.50
2023-09-02T16:04:52.123Z,98294.50
2023-09-02T16:07:19.594Z,98295.38
2023-09-02T16:09:47.828Z,98300.38
2023-09-02T16:12:15.515Z,98298.25
2023-09-02T16:14:44.435Z,98299.09
2023-09-02T16:17:24.290Z,98303.59
2023-09-02T16:19:53.059Z,98299.91
2023-09-02T16:22:21.200Z,98303.97
2023-09-02T16:24:49.683Z,98305.09
2023-09-02T16:27:17.771Z,98299.84
2023-09-02T16:29:48.184Z,98308.28
2023-09-02T16:32:17.309Z,98301.72
2023-09-02T16:34:47.884Z,98295.88
2023-09-02T16:37:17.746Z,98296.03
2023-09-02T16:39:45.839Z,98297.47
2023-09-02T16:42:14.376Z,98291.56
2023-09-02T16:44:46.290Z,98297.34
2023-09-02T16:47:16.841Z,98302.06
2023-09-02T16:49:44.406Z,98298.38
2023-09-02T16:52:13.949Z,98296.69
2023-09-02T16:54:42.596Z,98295.94
2023-09-02T16:57:11.809Z,98303.13
2023-09-02T16:59:40.739Z,98296.25
2023-09-02T17:02:20.324Z,98291.38
2023-09-02T17:04:48.483Z,98295.78
2023-09-02T17:07:18.172Z,98295.72
2023-09-02T17:09:46.640Z,98300.44
2023-09-02T17:12:15.213Z,98292.72
2023-09-02T17:14:44.021Z,98296.91
2023-09-02T17:17:12.571Z,98293.69
2023-09-02T17:19:40.778Z,98294.72
2023-09-02T17:22:08.276Z,98287.03
2023-09-02T17:24:37.765Z,98292.72
2023-09-02T17:27:19.939Z,98290.06
2023-09-02T17:29:49.355Z,98294.91
2023-09-02T17:32:17.330Z,98292.72
2023-09-02T17:34:45.901Z,98293.63
2023-09-02T17:37:13.399Z,98290.31
2023-09-02T17:39:42.987Z,98297.59
2023-09-02T17:42:12.917Z,98300.44
2023-09-02T17:44:45.566Z,98301.63
2023-09-02T17:47:13.629Z,98299.72
2023-09-02T17:49:41.329Z,98296.38
2023-09-02T17:52:09.614Z,98300.72
2023-09-02T17:54:37.801Z,98298.22
2023-09-02T17:57:07.505Z,98295.25
2023-09-02T17:59:35.164Z,98292.19
2023-09-02T18:02:05.095Z,98282.63
2023-09-02T18:04:34.273Z,98285.72
2023-09-02T18:07:01.993Z,98285.09
2023-09-02T18:09:29.894Z,98281.75
2023-09-02T18:11:57.420Z,98282.28
2023-09-02T18:14:26.450Z,98284.66
2023-09-02T18:16:54.003Z,98283.81
2023-09-02T18:19:21.653Z,98278.47
2023-09-02T18:21:50.018Z,98270.22
2023-09-02T18:24:17.985Z,98278.69
2023-09-02T18:26:45.570Z,98276.78
2023-09-02T18:29:14.149Z,98273.44
2023-09-02T18:31:44.087Z,98281.03
2023-09-02T18:34:11.709Z,98284.97
2023-09-02T18:36:39.730Z,98274.47
2023-09-02T18:39:08.019Z,98282.84
2023-09-02T18:41:36.144Z,98276.72
2023-09-02T18:44:04.841Z,98276.84
2023-09-02T18:46:32.514Z,98276.25
2023-09-02T18:49:01.993Z,98277.56
2023-09-02T18:51:30.795Z,98276.50
2023-09-02T18:53:58.555Z,98282.03
2023-09-02T18:56:26.374Z,98277.31
2023-09-02T18:58:53.854Z,98286.28
2023-09-02T19:01:21.502Z,98277.56
2023-09-02T19:03:50.378Z,98273.41
2023-09-02T19:06:19.368Z,98277.69
2023-09-02T19:08:47.372Z,98279.41
2023-09-02T19:11:15.579Z,98289.06
2023-09-02T19:13:44.267Z,98279.94
2023-09-02T19:16:12.370Z,98288.00
2023-09-02T19:18:40.658Z,98284.56
2023-09-02T19:21:08.853Z,98281.34
2023-09-02T19:23:38.032Z,98282.75
2023-09-02T19:26:07.330Z,98282.16
2023-09-02T19:28:35.333Z,98282.53
2023-09-02T19:31:03.005Z,98279.91
2023-09-02T19:33:30.715Z,98275.13
2023-09-02T19:35:58.525Z,98285.31
2023-09-02T19:38:26.050Z,98280.69
2023-09-02T19:40:56.089Z,98286.94
2023-09-02T19:43:23.673Z,98277.09
2023-09-02T19:45:51.448Z,98277.38
2023-09-02T19:48:19.140Z,98279.94
2023-09-02T19:50:47.513Z,98282.88
2023-09-02T19:53:16.011Z,98282.47
2023-09-02T19:55:45.572Z,98272.16
2023-09-02T19:58:15.240Z,98279.59
2023-09-02T20:00:44.107Z,98271.72
2023-09-02T20:03:13.538Z,98273.09
2023-09-02T20:05:41.372Z,98278.34
2023-09-02T20:08:09.566Z,98274.00
2023-09-02T20:10:37.622Z,98276.78
2023-09-02T20:13:06.178Z,98278.59
2023-09-02T20:15:36.415Z,98280.31
2023-09-02T20:18:04.836Z,98282.91
2023-09-02T20:20:34.379Z,98285.38
2023-09-02T20:23:02.395Z,98283.38
2023-09-02T20:25:31.803Z,98276.31
2023-09-02T20:28:00.381Z,98278.00
2023-09-02T20:30:29.283Z,98267.72
2023-09-02T20:32:58.590Z,98274.00
2023-09-02T20:35:26.472Z,98277.91
2023-09-02T20:37:55.069Z,98273.28
2023-09-02T20:40:22.626Z,98269.53
2023-09-02T20:42:50.829Z,98262.00
2023-09-02T20:45:19.653Z,98268.78
2023-09-02T20:47:47.474Z,98265.41
2023-09-02T20:50:17.895Z,98263.25
2023-09-02T20:52:45.945Z,98267.38
2023-09-02T20:55:14.478Z,98261.72
2023-09-02T20:57:45.503Z,98263.91
2023-09-02T21:00:15.001Z,98267.59
2023-09-02T21:02:43.713Z,98267.28
2023-09-02T21:05:11.728Z,98270.22
2023-09-02T21:07:41.804Z,98266.66
2023-09-02T21:10:10.847Z,98260.50
2023-09-02T21:12:39.034Z,98261.44
2023-09-02T21:15:08.531Z,98262.34
2023-09-02T21:17:36.779Z,98254.97
2023-09-02T21:20:07.354Z,98258.16
2023-09-02T21:22:35.908Z,98257.63
2023-09-02T21:25:05.989Z,98259.50
2023-09-02T21:27:34.544Z,98263.50
2023-09-02T21:30:02.447Z,98261.44
2023-09-02T21:32:30.905Z,98271.31
2023-09-02T21:34:58.777Z,98274.38
2023-09-02T21:37:26.580Z,98269.00
2023-09-02T21:39:55.303Z,98266.84
2023-09-02T21:42:25.567Z,98261.91
2023-09-02T21:44:53.361Z,98266.97
2023-09-02T21:47:21.793Z,98261.53
2023-09-02T21:49:50.252Z,98256.94
2023-09-02T21:52:21.288Z,98258.16
2023-09-02T21:54:51.844Z,98252.31
2023-09-02T21:57:19.889Z,98242.28
2023-09-02T21:59:49.427Z,98245.50
2023-09-02T22:02:17.540Z,98236.28
2023-09-02T22:04:45.940Z,98234.94
2023-09-02T22:07:13.507Z,98239.97
2023-09-02T22:09:40.991Z,98236.34
2023-09-02T22:12:09.338Z,98246.03
2023-09-02T22:14:37.485Z,98235.97
2023-09-02T22:17:06.730Z,98237.88
2023-09-02T22:19:34.344Z,98238.53
2023-09-02T22:22:02.676Z,98236.66
2023-09-02T22:24:30.956Z,98229.47
2023-09-02T22:26:59.461Z,98223.56
2023-09-02T22:29:27.655Z,98232.41
2023-09-02T22:31:55.863Z,98232.94
2023-09-02T22:34:25.759Z,98231.56
2023-09-02T22:36:54.529Z,98231.28
2023-09-02T22:39:22.353Z,98233.13
2023-09-02T22:41:49.864Z,98230.31
2023-09-02T22:44:17.514Z,98227.53
2023-09-02T22:46:45.110Z,98226.19
2023-09-02T22:49:26.476Z,98222.63
2023-09-02T22:51:54.156Z,98214.09
2023-09-02T22:54:21.613Z,98223.25
2023-09-02T22:56:49.174Z,98217.63
2023-09-02T22:59:17.123Z,98219.94
2023-09-02T23:01:44.844Z,98223.78
2023-09-02T23:04:12.547Z,98221.97
2023-09-02T23:06:41.588Z,98229.00
2023-09-02T23:09:09.343Z,98225.00
2023-09-02T23:11:37.112Z,98225.38
2023-09-02T23:14:04.985Z,98229.56
2023-09-02T23:16:32.671Z,98228.13
2023-09-02T23:19:00.413Z,98217.72
2023-09-02T23:21:28.584Z,98218.09
2023-09-02T23:23:57.818Z,98222.03
2023-09-02T23:26:25.581Z,98220.13
2023-09-02T23:28:53.772Z,98223.63
2023-09-02T23:31:21.947Z,98219.59
2023-09-02T23:33:50.049Z,98217.94
2023-09-02T23:36:17.621Z,98219.59
2023-09-02T23:38:45.245Z,98212.91
2023-09-02T23:41:14.729Z,98211.50
2023-09-02T23:43:42.330Z,98218.69
2023-09-02T23:46:14.286Z,98222.56
2023-09-02T23:48:41.746Z,98220.47
2023-09-02T23:51:10.042Z,98222.34
2023-09-02T23:53:37.669Z,98219.06
2023-09-02T23:56:05.242Z,98227.69
2023-09-02T23:58:34.212Z,98228.56
